createdAt,value
2022-10-22T00:01:23.434Z,75.12
2022-10-22T00:04:32.852Z,74.69
2022-10-22T00:07:37.398Z,75.04
2022-10-22T00:10:41.304Z,75.07
2022-10-22T00:13:43.313Z,74.94
2022-10-22T00:16:44.802Z,74.76
2022-10-22T00:19:46.235Z,74.94
2022-10-22T00:22:47.763Z,75.24
2022-10-22T00:25:49.224Z,75.04
2022-10-22T00:28:50.624Z,74.57
2022-10-22T00:31:52.093Z,75.12
2022-10-22T00:34:53.511Z,75.05
2022-10-22T00:37:54.943Z,74.24
2022-10-22T00:40:56.386Z,74.19
2022-10-22T00:44:02.001Z,74.47
2022-10-22T00:47:03.502Z,74.52
2022-10-22T00:50:14.326Z,74.41
2022-10-22T00:53:34.719Z,74.54
2022-10-22T00:56:37.845Z,74.89
2022-10-22T00:59:39.608Z,74.64
2022-10-22T01:02:41.412Z,74.95
2022-10-22T01:05:51.066Z,75.44
2022-10-22T01:09:27.951Z,74.89
2022-10-22T01:12:46.288Z,75.59
2022-10-22T01:16:17.758Z,75.40
2022-10-22T01:19:57.450Z,75.43
2022-10-22T01:23:05.302Z,75.58
2022-10-22T01:26:33.321Z,75.39
2022-10-22T01:29:50.661Z,75.81
2022-10-22T01:32:58.011Z,75.26
2022-10-22T01:36:00.132Z,75.56
2022-10-22T01:39:05.623Z,76.02
2022-10-22T01:42:07.079Z,76.05
2022-10-22T01:45:13.676Z,76.02
2022-10-22T01:48:49.138Z,75.78
2022-10-22T01:52:03.191Z,76.32
2022-10-22T01:55:18.266Z,76.96
2022-10-22T01:58:34.014Z,76.85
2022-10-22T02:01:46.467Z,76.99
2022-10-22T02:05:00.493Z,76.88
2022-10-22T02:08:15.705Z,77.48
2022-10-22T02:11:17.620Z,77.40
2022-10-22T02:14:25.459Z,76.42
2022-10-22T02:17:31.706Z,77.71
2022-10-22T02:20:36.602Z,77.15
2022-10-22T02:23:38.735Z,76.37
2022-10-22T02:26:48.509Z,76.11
2022-10-22T02:29:59.948Z,76.32
2022-10-22T02:33:11.519Z,76.13
2022-10-22T02:36:14.533Z,75.56
2022-10-22T02:39:18.916Z,75.26
2022-10-22T02:42:20.417Z,76.04
2022-10-22T02:45:22.398Z,76.08
2022-10-22T02:48:23.782Z,75.66
2022-10-22T02:51:25.359Z,75.31
2022-10-22T02:54:29.943Z,75.54
2022-10-22T02:57:31.898Z,74.92
2022-10-22T03:00:35.760Z,75.80
2022-10-22T03:03:39.425Z,75.49
2022-10-22T03:06:43.955Z,76.28
2022-10-22T03:09:47.797Z,75.90
2022-10-22T03:12:49.199Z,75.68
2022-10-22T03:15:51.141Z,75.75
2022-10-22T03:18:52.565Z,75.33
2022-10-22T03:21:59.741Z,75.20
2022-10-22T03:25:07.897Z,75.06
2022-10-22T03:28:13.240Z,75.31
2022-10-22T03:31:14.824Z,75.50
2022-10-22T03:34:16.260Z,74.51
2022-10-22T03:37:20.884Z,75.47
2022-10-22T03:40:22.803Z,75.75
2022-10-22T03:43:24.455Z,75.18
2022-10-22T03:46:25.844Z,75.51
2022-10-22T03:49:27.250Z,74.89
2022-10-22T03:52:28.887Z,75.06
2022-10-22T03:55:30.340Z,74.79
2022-10-22T03:58:31.722Z,75.09
2022-10-22T04:01:33.380Z,74.81
2022-10-22T04:04:35.888Z,75.13
2022-10-22T04:07:37.795Z,75.21
2022-10-22T04:10:39.362Z,75.48
2022-10-22T04:13:41.175Z,75.29
2022-10-22T04:16:43.089Z,75.57
2022-10-22T04:19:44.548Z,75.29
2022-10-22T04:22:46.155Z,74.94
2022-10-22T04:25:47.672Z,75.18
2022-10-22T04:28:50.661Z,75.19
2022-10-22T04:31:52.299Z,75.36
2022-10-22T04:34:54.220Z,74.68
2022-10-22T04:37:55.659Z,74.77
2022-10-22T04:40:57.085Z,74.79
2022-10-22T04:43:58.855Z,75.05
2022-10-22T04:47:00.473Z,75.14
2022-10-22T04:50:01.872Z,74.36
2022-10-22T04:53:03.336Z,75.04
2022-10-22T04:56:11.294Z,75.13
2022-10-22T04:59:13.224Z,74.90
2022-10-22T05:02:14.794Z,75.07
2022-10-22T05:05:16.507Z,75.06
2022-10-22T05:08:18.006Z,74.66
2022-10-22T05:11:27.810Z,75.05
2022-10-22T05:14:29.266Z,75.00
2022-10-22T05:17:30.660Z,75.28
2022-10-22T05:20:32.063Z,74.74
2022-10-22T05:23:33.494Z,74.89
2022-10-22T05:26:35.090Z,74.93
2022-10-22T05:29:36.632Z,74.99
2022-10-22T05:32:38.018Z,74.89
2022-10-22T05:35:39.577Z,74.95
2022-10-22T05:38:41.029Z,75.25
2022-10-22T05:41:42.444Z,74.93
2022-10-22T05:44:43.872Z,75.04
2022-10-22T05:47:45.247Z,75.12
2022-10-22T05:50:50.751Z,75.00
2022-10-22T05:53:57.366Z,74.76
2022-10-22T05:56:58.761Z,74.98
2022-10-22T06:00:00.150Z,74.65
2022-10-22T06:03:01.559Z,74.94
2022-10-22T06:06:20.549Z,75.27
2022-10-22T06:09:35.459Z,75.20
2022-10-22T06:12:36.954Z,74.77
2022-10-22T06:15:38.459Z,74.79
2022-10-22T06:18:40.040Z,75.20
2022-10-22T06:21:41.939Z,74.66
2022-10-22T06:24:45.127Z,74.61
2022-10-22T06:27:51.610Z,74.60
2022-10-22T06:30:53.023Z,74.87
2022-10-22T06:33:56.149Z,74.55
2022-10-22T06:36:57.702Z,75.18
2022-10-22T06:39:59.319Z,74.84
2022-10-22T06:43:00.895Z,74.84
2022-10-22T06:46:04.043Z,74.41
2022-10-22T06:49:05.870Z,74.17
2022-10-22T06:52:07.285Z,74.37
2022-10-22T06:55:09.226Z,74.11
2022-10-22T06:58:10.653Z,73.97
2022-10-22T07:01:14.961Z,73.90
2022-10-22T07:04:16.621Z,73.99
2022-10-22T07:07:18.066Z,74.15
2022-10-22T07:10:20.349Z,73.86
2022-10-22T07:13:22.517Z,73.51
2022-10-22T07:16:28.118Z,74.20
2022-10-22T07:19:34.120Z,73.71
2022-10-22T07:22:35.517Z,73.48
2022-10-22T07:25:36.993Z,73.51
2022-10-22T07:28:40.899Z,73.51
2022-10-22T07:31:42.600Z,73.35
2022-10-22T07:34:44.089Z,73.17
2022-10-22T07:37:45.526Z,73.65
2022-10-22T07:40:46.950Z,72.94
2022-10-22T07:43:51.716Z,72.59
2022-10-22T07:46:53.092Z,72.79
2022-10-22T07:49:54.632Z,72.43
2022-10-22T07:52:58.214Z,72.42
2022-10-22T07:56:00.253Z,72.12
2022-10-22T08:02:09.292Z,72.52
2022-10-22T08:05:10.706Z,71.88
2022-10-22T08:08:14.556Z,71.92
2022-10-22T08:11:16.046Z,72.10
2022-10-22T08:14:17.790Z,71.30
2022-10-22T08:17:19.431Z,71.27
2022-10-22T08:20:21.154Z,71.13
2022-10-22T08:23:26.017Z,70.63
2022-10-22T08:26:29.119Z,70.45
2022-10-22T08:29:30.525Z,69.95
2022-10-22T08:32:32.444Z,69.81
2022-10-22T08:35:34.038Z,70.10
2022-10-22T08:38:35.894Z,68.32
2022-10-22T08:42:00.217Z,67.83
2022-10-22T08:45:04.676Z,66.84
2022-10-22T08:48:13.897Z,66.70
2022-10-22T08:51:19.061Z,66.28
2022-10-22T08:54:58.961Z,66.29
2022-10-22T08:58:18.714Z,66.37
2022-10-22T09:01:35.378Z,67.03
2022-10-22T09:04:44.981Z,66.03
2022-10-22T09:07:50.141Z,66.75
2022-10-22T09:11:02.301Z,65.33
2022-10-22T09:14:04.663Z,65.70
2022-10-22T09:17:25.665Z,63.27
2022-10-22T09:20:39.664Z,63.55
2022-10-22T09:24:02.824Z,64.05
2022-10-22T09:27:12.878Z,63.51
2022-10-22T09:30:18.215Z,62.95
2022-10-22T09:33:28.571Z,62.74
2022-10-22T09:36:30.541Z,63.02
2022-10-22T09:39:37.651Z,63.01
2022-10-22T09:42:39.648Z,61.30
2022-10-22T09:45:42.493Z,61.66
2022-10-22T09:48:47.656Z,60.92
2022-10-22T09:52:00.235Z,61.76
2022-10-22T09:55:02.525Z,61.14
2022-10-22T09:58:04.760Z,61.11
2022-10-22T10:01:06.292Z,60.08
2022-10-22T10:04:13.480Z,59.86
2022-10-22T10:07:20.317Z,59.43
2022-10-22T10:10:32.773Z,59.17
2022-10-22T10:13:46.890Z,59.75
2022-10-22T10:16:58.987Z,58.54
2022-10-22T10:20:21.776Z,58.47
2022-10-22T10:23:48.375Z,57.64
2022-10-22T10:27:00.168Z,57.92
2022-10-22T10:30:20.457Z,57.71
2022-10-22T10:33:45.226Z,56.89
2022-10-22T10:37:01.754Z,55.54
2022-10-22T10:40:21.641Z,55.43
2022-10-22T10:43:58.992Z,54.70
2022-10-22T10:47:33.042Z,54.57
2022-10-22T10:50:53.471Z,53.83
2022-10-22T10:54:02.287Z,52.61
2022-10-22T10:57:22.061Z,52.29
2022-10-22T11:00:23.892Z,53.18
2022-10-22T11:03:46.922Z,52.27
2022-10-22T11:06:50.223Z,51.95
2022-10-22T11:10:01.529Z,52.46
2022-10-22T11:13:41.480Z,52.16
2022-10-22T11:16:53.029Z,49.97
2022-10-22T11:20:01.420Z,49.36
2022-10-22T11:23:23.276Z,50.24
2022-10-22T11:26:53.884Z,50.54
2022-10-22T11:30:02.702Z,50.72
2022-10-22T11:33:10.269Z,51.63
2022-10-22T11:36:12.473Z,50.75
2022-10-22T11:39:43.239Z,51.85
2022-10-22T11:42:52.428Z,53.05
2022-10-22T11:46:28.582Z,53.64
2022-10-22T11:49:55.529Z,55.19
2022-10-22T11:53:04.788Z,54.45
2022-10-22T11:56:06.332Z,56.05
2022-10-22T11:59:40.696Z,54.35
2022-10-22T12:02:45.226Z,53.86
2022-10-22T12:05:46.785Z,55.33
2022-10-22T12:08:54.554Z,54.69
2022-10-22T12:12:04.626Z,54.15
2022-10-22T12:15:26.140Z,54.06
2022-10-22T12:18:34.387Z,53.88
2022-10-22T12:21:38.256Z,54.98
2022-10-22T12:24:46.954Z,54.31
2022-10-22T12:28:12.451Z,55.90
2022-10-22T12:31:16.464Z,54.99
2022-10-22T12:34:22.040Z,54.23
2022-10-22T12:37:23.482Z,54.27
2022-10-22T12:40:34.729Z,52.99
2022-10-22T12:43:39.409Z,51.40
2022-10-22T12:46:42.696Z,53.81
2022-10-22T12:49:49.928Z,52.89
2022-10-22T12:52:55.395Z,51.85
2022-10-22T12:56:01.361Z,52.64
2022-10-22T12:59:09.882Z,52.86
2022-10-22T13:02:24.623Z,54.41
2022-10-22T13:05:27.875Z,53.00
2022-10-22T13:08:29.330Z,54.40
2022-10-22T13:11:39.837Z,55.63
2022-10-22T13:14:41.263Z,54.49
2022-10-22T13:17:43.182Z,52.73
2022-10-22T13:20:57.136Z,51.23
2022-10-22T13:24:04.074Z,51.93
2022-10-22T13:27:09.464Z,51.69
2022-10-22T13:30:23.404Z,54.58
2022-10-22T13:33:29.122Z,56.86
2022-10-22T13:36:30.598Z,54.02
2022-10-22T13:39:33.415Z,54.35
2022-10-22T13:42:35.950Z,51.89
2022-10-22T13:45:37.462Z,50.53
2022-10-22T13:48:39.022Z,49.73
2022-10-22T13:51:40.857Z,49.69
2022-10-22T13:54:42.237Z,49.47
2022-10-22T13:57:43.982Z,51.00
2022-10-22T14:00:48.836Z,52.32
2022-10-22T14:03:53.627Z,52.15
2022-10-22T14:06:56.773Z,50.40
2022-10-22T14:10:00.291Z,50.39
2022-10-22T14:13:01.901Z,50.42
2022-10-22T14:16:05.242Z,51.21
2022-10-22T14:19:10.482Z,51.23
2022-10-22T14:22:16.679Z,49.35
2022-10-22T14:25:24.276Z,50.61
2022-10-22T14:28:25.806Z,52.14
2022-10-22T14:31:27.573Z,51.56
2022-10-22T14:34:29.016Z,51.15
2022-10-22T14:37:30.692Z,52.01
2022-10-22T14:40:32.220Z,53.14
2022-10-22T14:43:33.640Z,52.21
2022-10-22T14:46:35.637Z,52.14
2022-10-22T14:49:37.025Z,51.55
2022-10-22T14:52:38.549Z,52.02
2022-10-22T14:55:41.437Z,50.46
2022-10-22T14:58:43.180Z,50.63
2022-10-22T15:01:44.662Z,50.53
2022-10-22T15:04:46.198Z,49.99
2022-10-22T15:07:47.747Z,51.71
2022-10-22T15:10:59.090Z,53.32
2022-10-22T15:14:00.692Z,53.77
2022-10-22T15:17:02.182Z,53.71
2022-10-22T15:20:05.396Z,53.48
2022-10-22T15:23:06.883Z,52.60
2022-10-22T15:26:10.048Z,55.54
2022-10-22T15:29:11.487Z,54.74
2022-10-22T15:32:12.918Z,57.12
2022-10-22T15:35:14.566Z,58.39
2022-10-22T15:38:16.535Z,59.25
2022-10-22T15:41:18.030Z,59.50
2022-10-22T15:44:22.742Z,59.52
2022-10-22T15:47:28.330Z,60.20
2022-10-22T15:50:29.735Z,61.29
2022-10-22T15:53:31.126Z,61.57
2022-10-22T15:56:32.999Z,61.56
2022-10-22T15:59:36.010Z,61.67
2022-10-22T16:02:37.408Z,62.12
2022-10-22T16:05:38.827Z,62.93
2022-10-22T16:08:40.324Z,63.25
2022-10-22T16:11:42.443Z,63.20
2022-10-22T16:14:44.719Z,64.29
2022-10-22T16:17:47.334Z,63.90
2022-10-22T16:20:49.105Z,64.74
2022-10-22T16:23:50.705Z,64.70
2022-10-22T16:26:53.124Z,65.56
2022-10-22T16:29:54.760Z,66.21
2022-10-22T16:32:56.158Z,66.07
2022-10-22T16:35:57.757Z,65.79
2022-10-22T16:38:59.220Z,65.28
2022-10-22T16:42:00.618Z,64.35
2022-10-22T16:45:02.372Z,65.71
2022-10-22T16:48:04.121Z,66.19
2022-10-22T16:51:07.843Z,66.26
2022-10-22T16:54:12.762Z,66.73
2022-10-22T16:57:14.207Z,66.02
2022-10-22T17:00:15.908Z,65.72
2022-10-22T17:03:17.392Z,65.75
2022-10-22T17:06:18.849Z,65.37
2022-10-22T17:09:20.376Z,65.81
2022-10-22T17:12:21.897Z,64.31
2022-10-22T17:15:23.300Z,64.50
2022-10-22T17:18:24.718Z,63.80
2022-10-22T17:21:26.223Z,62.84
2022-10-22T17:24:27.651Z,63.19
2022-10-22T17:27:29.041Z,62.92
2022-10-22T17:30:30.544Z,63.18
2022-10-22T17:33:33.176Z,63.18
2022-10-22T17:36:36.188Z,63.23
2022-10-22T17:39:37.753Z,62.91
2022-10-22T17:42:39.501Z,63.03
2022-10-22T17:45:41.246Z,63.06
2022-10-22T17:48:42.844Z,62.91
2022-10-22T17:51:44.989Z,62.39
2022-10-22T17:54:48.341Z,62.23
2022-10-22T17:57:49.786Z,62.04
2022-10-22T18:00:51.311Z,61.76
2022-10-22T18:03:54.753Z,61.25
2022-10-22T18:06:57.555Z,62.61
2022-10-22T18:09:59.062Z,61.75
2022-10-22T18:13:00.511Z,61.69
2022-10-22T18:16:02.548Z,61.99
2022-10-22T18:19:04.478Z,61.33
2022-10-22T18:22:07.778Z,61.54
2022-10-22T18:25:09.661Z,61.64
2022-10-22T18:28:13.180Z,61.20
2022-10-22T18:31:20.418Z,61.24
2022-10-22T18:34:23.900Z,60.40
2022-10-22T18:37:25.734Z,61.38
2022-10-22T18:40:30.080Z,61.17
2022-10-22T18:43:31.598Z,60.84
2022-10-22T18:46:34.850Z,60.91
2022-10-22T18:49:36.360Z,60.60
2022-10-22T18:52:37.891Z,60.92
2022-10-22T18:55:39.759Z,60.89
2022-10-22T18:58:44.697Z,61.46
2022-10-22T19:01:46.346Z,61.00
2022-10-22T19:04:47.750Z,61.37
2022-10-22T19:07:50.367Z,61.07
2022-10-22T19:10:51.814Z,61.13
2022-10-22T19:13:53.339Z,61.30
2022-10-22T19:16:54.859Z,61.36
2022-10-22T19:19:56.356Z,61.44
2022-10-22T19:22:57.752Z,61.92
2022-10-22T19:26:08.916Z,61.56
2022-10-22T19:29:13.501Z,61.46
2022-10-22T19:32:16.706Z,61.47
2022-10-22T19:35:18.455Z,61.68
2022-10-22T19:38:19.994Z,62.08
2022-10-22T19:41:23.528Z,61.72
2022-10-22T19:44:25.068Z,62.07
2022-10-22T19:47:26.514Z,61.28
2022-10-22T19:50:27.921Z,61.66
2022-10-22T19:53:30.348Z,61.79
2022-10-22T19:56:33.015Z,62.02
2022-10-22T19:59:34.473Z,61.64
2022-10-22T20:02:36.642Z,62.14
2022-10-22T20:05:38.502Z,61.77
2022-10-22T20:08:40.193Z,61.99
2022-10-22T20:11:41.689Z,61.98
2022-10-22T20:14:43.101Z,62.03
2022-10-22T20:17:44.887Z,61.65
2022-10-22T20:20:46.409Z,62.02
2022-10-22T20:23:52.314Z,61.70
2022-10-22T20:26:53.770Z,61.79
2022-10-22T20:29:55.155Z,61.62
2022-10-22T20:32:56.565Z,61.57
2022-10-22T20:36:03.234Z,61.45
2022-10-22T20:39:08.103Z,61.22
2022-10-22T20:42:09.607Z,61.21
2022-10-22T20:45:11.068Z,60.98
2022-10-22T20:48:15.457Z,60.86
2022-10-22T20:51:16.885Z,60.10
2022-10-22T20:54:19.388Z,60.52
2022-10-22T20:57:20.872Z,60.57
2022-10-22T21:00:22.356Z,60.04
2022-10-22T21:03:24.048Z,60.12
2022-10-22T21:06:25.715Z,60.35
2022-10-22T21:09:27.940Z,60.70
2022-10-22T21:12:29.350Z,60.58
2022-10-22T21:15:30.780Z,60.57
2022-10-22T21:18:32.327Z,60.70
2022-10-22T21:21:33.773Z,60.64
2022-10-22T21:24:35.167Z,61.01
2022-10-22T21:27:36.547Z,60.57
2022-10-22T21:30:44.688Z,60.16
2022-10-22T21:33:46.178Z,60.47
2022-10-22T21:39:48.964Z,60.76
2022-10-22T21:42:50.920Z,60.31
2022-10-22T21:46:05.402Z,60.73
2022-10-22T21:49:09.319Z,60.74
2022-10-22T21:52:10.828Z,60.63
2022-10-22T21:55:12.232Z,61.65
2022-10-22T21:58:13.826Z,61.55
2022-10-22T22:01:16.040Z,61.58
2022-10-22T22:04:17.512Z,61.80
2022-10-22T22:07:18.921Z,61.66
2022-10-22T22:10:20.421Z,61.53
2022-10-22T22:13:24.849Z,62.43
2022-10-22T22:16:32.777Z,62.13
2022-10-22T22:19:34.178Z,62.15
2022-10-22T22:22:35.582Z,62.73
2022-10-22T22:25:37.081Z,63.10
2022-10-22T22:28:38.605Z,64.48
2022-10-22T22:31:40.259Z,64.30
2022-10-22T22:34:41.798Z,65.02
2022-10-22T22:37:43.485Z,64.58
2022-10-22T22:40:45.082Z,65.57
2022-10-22T22:43:46.513Z,65.01
2022-10-22T22:46:47.936Z,65.53
2022-10-22T22:49:49.315Z,65.10
2022-10-22T22:52:50.717Z,64.46
2022-10-22T22:56:02.560Z,64.92
2022-10-22T22:59:04.746Z,65.43
2022-10-22T23:02:06.129Z,65.75
2022-10-22T23:05:07.920Z,66.28
2022-10-22T23:08:09.331Z,65.10
2022-10-22T23:11:13.202Z,65.19
2022-10-22T23:14:17.253Z,64.92
2022-10-22T23:17:19.559Z,67.29
2022-10-22T23:20:21.197Z,67.71
2022-10-22T23:23:22.620Z,67.85
2022-10-22T23:26:27.549Z,67.21
2022-10-22T23:29:31.253Z,66.80
2022-10-22T23:32:32.704Z,66.80
2022-10-22T23:35:34.088Z,66.71
2022-10-22T23:38:36.799Z,66.18
2022-10-22T23:41:39.008Z,65.26
2022-10-22T23:44:40.381Z,65.72
2022-10-22T23:47:42.071Z,65.87
2022-10-22T23:50:43.780Z,66.01
2022-10-22T23:53:46.624Z,65.59
2022-10-22T23:56:48.056Z,66.14
2022-10-22T23:59:49.483Z,65.48
